createdAt,value
2018-09-05T00:00:06.959Z,8.33
2018-09-05T00:02:35.092Z,8.10
2018-09-05T00:05:03.641Z,7.63
2018-09-05T00:07:32.270Z,8.07
2018-09-05T00:10:00.369Z,8.00
2018-09-05T00:12:28.475Z,8.23
2018-09-05T00:14:56.584Z,8.00
2018-09-05T00:17:24.787Z,8.37
2018-09-05T00:19:53.247Z,7.57
2018-09-05T00:22:21.893Z,8.50
2018-09-05T00:24:50.005Z,7.83
2018-09-05T00:27:18.711Z,7.90
2018-09-05T00:29:47.157Z,7.30
2018-09-05T00:32:16.227Z,8.20
2018-09-05T00:34:44.684Z,8.40
2018-09-05T00:37:12.788Z,7.57
2018-09-05T00:39:41.603Z,7.33
2018-09-05T00:42:09.708Z,7.23
2018-09-05T00:44:38.175Z,6.70
2018-09-05T00:47:06.615Z,8.43
2018-09-05T00:49:34.734Z,8.33
2018-09-05T00:52:03.891Z,7.13
2018-09-05T00:54:32.328Z,6.83
2018-09-05T00:57:00.771Z,7.47
2018-09-05T00:59:29.206Z,7.53
2018-09-05T01:01:57.648Z,8.20
2018-09-05T01:04:25.979Z,7.60
2018-09-05T01:06:55.516Z,7.10
2018-09-05T01:09:23.825Z,6.73
2018-09-05T01:11:52.348Z,7.00
2018-09-05T01:14:20.776Z,7.20
2018-09-05T01:16:48.870Z,7.17
2018-09-05T01:19:17.299Z,8.10
2018-09-05T01:21:45.388Z,8.00
2018-09-05T01:24:13.587Z,7.33
2018-09-05T01:26:42.184Z,7.67
2018-09-05T01:29:10.538Z,7.60
2018-09-05T01:31:39.436Z,7.53
2018-09-05T01:34:07.562Z,8.10
2018-09-05T01:36:36.216Z,7.57
2018-09-05T01:39:06.267Z,7.90
2018-09-05T01:41:34.936Z,6.97
2018-09-05T01:44:03.383Z,8.47
2018-09-05T01:46:32.005Z,6.73
2018-09-05T01:49:00.446Z,7.23
2018-09-05T01:51:32.955Z,7.90
2018-09-05T01:54:02.107Z,7.30
2018-09-05T01:56:31.184Z,7.47
2018-09-05T01:58:59.619Z,7.03
2018-09-05T02:01:28.056Z,8.50
2018-09-05T02:03:56.688Z,7.33
2018-09-05T02:06:25.428Z,7.40
2018-09-05T02:08:55.650Z,8.20
2018-09-05T02:11:24.517Z,7.43
2018-09-05T02:13:52.615Z,7.90
2018-09-05T02:16:21.059Z,6.93
2018-09-05T02:18:49.536Z,7.87
2018-09-05T02:21:17.655Z,7.10
2018-09-05T02:23:45.768Z,7.10
2018-09-05T02:26:14.207Z,7.43
2018-09-05T02:28:42.311Z,7.60
2018-09-05T02:31:10.439Z,7.93
2018-09-05T02:33:38.931Z,7.70
2018-09-05T02:36:07.318Z,8.00
2018-09-05T02:38:35.736Z,7.23
2018-09-05T02:41:03.926Z,7.93
2018-09-05T02:43:37.306Z,8.20
2018-09-05T02:46:05.996Z,7.60
2018-09-05T02:48:34.454Z,7.87
2018-09-05T02:51:03.410Z,7.77
2018-09-05T02:53:31.942Z,7.20
2018-09-05T02:56:02.694Z,8.10
2018-09-05T02:58:32.716Z,7.67
2018-09-05T03:01:01.289Z,7.47
2018-09-05T03:03:29.998Z,7.67
2018-09-05T03:05:58.856Z,7.47
2018-09-05T03:08:27.459Z,7.20
2018-09-05T03:10:55.978Z,8.10
2018-09-05T03:13:24.623Z,7.70
2018-09-05T03:15:52.707Z,8.50
2018-09-05T03:18:20.827Z,7.70
2018-09-05T03:20:49.467Z,8.20
2018-09-05T03:23:17.627Z,8.73
2018-09-05T03:25:46.152Z,8.17
2018-09-05T03:28:14.436Z,7.50
2018-09-05T03:30:42.769Z,8.33
2018-09-05T03:33:10.871Z,7.90
2018-09-05T03:35:39.600Z,8.23
2018-09-05T03:38:08.048Z,8.47
2018-09-05T03:40:36.566Z,8.07
2018-09-05T03:43:05.016Z,7.27
2018-09-05T03:45:33.464Z,7.87
2018-09-05T03:48:01.563Z,7.63
2018-09-05T03:50:30.231Z,8.50
2018-09-05T03:52:58.328Z,7.50
2018-09-05T03:55:26.680Z,8.20
2018-09-05T03:57:54.904Z,9.30
2018-09-05T04:00:23.584Z,7.73
2018-09-05T04:02:51.683Z,8.63
2018-09-05T04:05:20.779Z,8.30
2018-09-05T04:07:51.077Z,7.90
2018-09-05T04:10:19.385Z,8.00
2018-09-05T04:12:47.719Z,8.23
2018-09-05T04:15:16.148Z,8.43
2018-09-05T04:17:44.504Z,9.10
2018-09-05T04:20:13.388Z,8.50
2018-09-05T04:22:41.837Z,9.43
2018-09-05T04:25:10.700Z,8.83
2018-09-05T04:27:38.803Z,9.00
2018-09-05T04:30:07.376Z,8.77
2018-09-05T04:32:35.771Z,10.50
2018-09-05T04:35:03.917Z,9.93
2018-09-05T04:37:32.029Z,8.63
2018-09-05T04:40:00.505Z,9.63
2018-09-05T04:42:29.112Z,9.07
2018-09-05T04:44:57.480Z,8.93
2018-09-05T04:47:26.106Z,8.43
2018-09-05T04:49:55.818Z,9.17
2018-09-05T04:52:24.288Z,8.50
2018-09-05T04:54:52.456Z,9.40
2018-09-05T04:57:21.095Z,9.27
2018-09-05T04:59:49.216Z,9.37
2018-09-05T05:02:17.652Z,9.93
2018-09-05T05:04:46.117Z,9.20
2018-09-05T05:07:14.243Z,8.67
2018-09-05T05:09:42.360Z,9.73
2018-09-05T05:12:10.793Z,8.90
2018-09-05T05:14:39.155Z,9.80
2018-09-05T05:17:07.477Z,10.47
2018-09-05T05:19:36.157Z,9.07
2018-09-05T05:22:04.266Z,9.43
2018-09-05T05:24:32.371Z,8.40
2018-09-05T05:27:00.492Z,8.80
2018-09-05T05:29:28.672Z,8.47
2018-09-05T05:31:56.828Z,9.30
2018-09-05T05:34:25.361Z,9.40
2018-09-05T05:36:54.239Z,9.20
2018-09-05T05:39:22.915Z,10.00
2018-09-05T05:41:51.473Z,8.90
2018-09-05T05:44:19.819Z,10.20
2018-09-05T05:46:47.953Z,9.60
2018-09-05T05:49:16.246Z,9.60
2018-09-05T05:51:44.397Z,9.10
2018-09-05T05:54:12.833Z,9.70
2018-09-05T05:56:41.285Z,9.97
2018-09-05T05:59:09.712Z,9.93
2018-09-05T06:01:38.425Z,9.70
2018-09-05T06:04:06.723Z,9.67
2018-09-05T06:06:35.167Z,9.60
2018-09-05T06:09:08.189Z,9.30
2018-09-05T06:11:36.300Z,9.97
2018-09-05T06:14:05.128Z,9.60
2018-09-05T06:16:33.932Z,8.90
2018-09-05T06:19:02.284Z,9.60
2018-09-05T06:21:30.457Z,10.33
2018-09-05T06:23:58.942Z,10.23
2018-09-05T06:26:27.548Z,10.27
2018-09-05T06:28:56.008Z,9.37
2018-09-05T06:31:24.484Z,9.70
2018-09-05T06:33:52.927Z,10.27
2018-09-05T06:36:21.618Z,9.03
2018-09-05T06:38:49.692Z,8.77
2018-09-05T06:41:18.260Z,9.70
2018-09-05T06:43:46.382Z,10.03
2018-09-05T06:46:14.503Z,9.73
2018-09-05T06:48:42.596Z,8.70
2018-09-05T06:51:10.724Z,9.30
2018-09-05T06:53:39.559Z,8.83
2018-09-05T06:56:08.572Z,10.10
2018-09-05T06:58:36.940Z,9.17
2018-09-05T07:01:05.655Z,8.87
2018-09-05T07:03:34.187Z,9.53
2018-09-05T07:06:02.772Z,10.20
2018-09-05T07:08:31.243Z,10.13
2018-09-05T07:11:00.194Z,10.23
2018-09-05T07:13:28.680Z,9.97
2018-09-05T07:15:57.262Z,9.60
2018-09-05T07:18:25.826Z,9.07
2018-09-05T07:21:05.684Z,10.47
2018-09-05T07:23:22.812Z,10.10
2018-09-05T07:25:51.279Z,10.10
2018-09-05T07:28:19.827Z,11.17
2018-09-05T07:30:48.375Z,9.80
2018-09-05T07:33:16.988Z,10.77
2018-09-05T07:35:45.621Z,9.57
2018-09-05T07:38:14.275Z,9.90
2018-09-05T07:40:42.719Z,10.00
2018-09-05T07:43:11.184Z,10.00
2018-09-05T07:45:39.288Z,9.90
2018-09-05T07:48:07.431Z,10.40
2018-09-05T07:50:35.765Z,10.00
2018-09-05T07:53:04.635Z,9.70
2018-09-05T07:55:33.123Z,10.70
2018-09-05T07:58:01.772Z,9.30
2018-09-05T08:00:30.556Z,9.63
2018-09-05T08:02:59.263Z,9.53
2018-09-05T08:05:27.848Z,9.70
2018-09-05T08:07:57.213Z,8.83
2018-09-05T08:10:25.808Z,9.00
2018-09-05T08:12:53.941Z,9.73
2018-09-05T08:15:22.389Z,8.83
2018-09-05T08:17:50.849Z,8.23
2018-09-05T08:20:19.283Z,9.23
2018-09-05T08:22:47.740Z,8.77
2018-09-05T08:25:16.191Z,9.27
2018-09-05T08:27:44.842Z,8.40
2018-09-05T08:30:13.285Z,8.10
2018-09-05T08:32:41.755Z,6.83
2018-09-05T08:35:10.357Z,9.30
2018-09-05T08:37:38.647Z,8.40
2018-09-05T08:40:07.826Z,9.00
2018-09-05T08:42:36.929Z,8.57
2018-09-05T08:45:06.455Z,8.50
2018-09-05T08:47:34.575Z,8.23
2018-09-05T08:50:02.834Z,8.47
2018-09-05T08:52:31.259Z,9.20
2018-09-05T08:55:00.001Z,9.47
2018-09-05T08:57:28.616Z,7.70
2018-09-05T08:59:56.744Z,7.97
2018-09-05T09:02:25.198Z,7.77
2018-09-05T09:04:53.553Z,8.40
2018-09-05T09:07:22.240Z,8.00
2018-09-05T09:09:50.372Z,8.70
2018-09-05T09:12:18.750Z,8.10
2018-09-05T09:14:47.221Z,7.47
2018-09-05T09:19:52.175Z,6.53
2018-09-05T09:22:20.264Z,7.37
2018-09-05T09:24:48.567Z,6.90
2018-09-05T09:27:17.036Z,6.70
2018-09-05T09:29:45.483Z,6.47
2018-09-05T09:32:14.105Z,6.10
2018-09-05T09:34:42.611Z,6.20
2018-09-05T09:37:11.500Z,7.00
2018-09-05T09:39:39.949Z,6.77
2018-09-05T09:42:08.625Z,6.20
2018-09-05T09:44:36.747Z,7.50
2018-09-05T09:47:05.211Z,6.47
2018-09-05T09:49:33.666Z,6.43
2018-09-05T09:52:07.825Z,6.90
2018-09-05T09:54:36.280Z,5.63
2018-09-05T09:57:04.468Z,6.30
2018-09-05T09:59:32.908Z,5.93
2018-09-05T10:02:06.676Z,6.20
2018-09-05T10:04:40.443Z,5.67
2018-09-05T10:07:15.717Z,6.00
2018-09-05T10:09:49.586Z,5.77
2018-09-05T10:12:23.615Z,5.93
2018-09-05T10:14:57.531Z,5.80
2018-09-05T10:17:33.971Z,5.77
2018-09-05T10:20:03.006Z,5.60
2018-09-05T10:22:32.206Z,5.33
2018-09-05T10:25:01.040Z,6.50
2018-09-05T10:27:31.091Z,6.37
2018-09-05T10:29:59.557Z,6.10
2018-09-05T10:32:27.991Z,5.13
2018-09-05T10:34:56.860Z,5.33
2018-09-05T10:37:26.011Z,6.00
2018-09-05T10:39:56.211Z,5.10
2018-09-05T10:42:24.668Z,6.40
2018-09-05T10:44:53.148Z,6.27
2018-09-05T10:47:21.589Z,5.27
2018-09-05T10:49:50.037Z,5.27
2018-09-05T10:52:18.675Z,4.80
2018-09-05T10:54:47.132Z,5.23
2018-09-05T10:57:15.424Z,5.50
2018-09-05T10:59:44.118Z,5.10
2018-09-05T11:02:12.229Z,5.40
2018-09-05T11:04:40.686Z,4.60
2018-09-05T11:07:09.141Z,5.43
2018-09-05T11:09:37.236Z,5.40
2018-09-05T11:12:05.792Z,5.10
2018-09-05T11:14:33.892Z,5.53
2018-09-05T11:17:02.339Z,4.60
2018-09-05T11:19:30.753Z,4.83
2018-09-05T11:21:58.999Z,4.60
2018-09-05T11:24:27.487Z,5.07
2018-09-05T11:26:55.804Z,4.97
2018-09-05T11:29:23.920Z,5.07
2018-09-05T11:31:52.360Z,4.60
2018-09-05T11:34:20.472Z,5.30
2018-09-05T11:36:48.579Z,4.70
2018-09-05T11:39:17.247Z,4.77
2018-09-05T11:41:45.408Z,5.60
2018-09-05T11:44:13.672Z,4.90
2018-09-05T11:46:42.131Z,4.83
2018-09-05T11:49:10.256Z,4.30
2018-09-05T11:51:38.607Z,4.57
2018-09-05T11:54:07.229Z,4.73
2018-09-05T11:56:35.556Z,4.10
2018-09-05T11:59:04.462Z,4.17
2018-09-05T12:01:32.916Z,4.30
2018-09-05T12:04:01.351Z,4.20
2018-09-05T12:06:29.789Z,4.40
2018-09-05T12:09:00.069Z,3.93
2018-09-05T12:11:28.181Z,4.70
2018-09-05T12:13:57.067Z,4.37
2018-09-05T12:16:25.191Z,4.60
2018-09-05T12:18:53.833Z,4.00
2018-09-05T12:21:23.967Z,5.57
2018-09-05T12:23:52.383Z,4.63
2018-09-05T12:26:21.325Z,4.60
2018-09-05T12:28:50.125Z,4.33
2018-09-05T12:31:18.610Z,5.07
2018-09-05T12:33:47.158Z,4.27
2018-09-05T12:36:15.879Z,4.50
2018-09-05T12:38:43.989Z,4.30
2018-09-05T12:41:12.762Z,4.53
2018-09-05T12:43:41.463Z,4.13
2018-09-05T12:46:09.691Z,4.30
2018-09-05T12:48:37.818Z,4.60
2018-09-05T12:51:06.703Z,4.70
2018-09-05T12:53:35.144Z,4.50
2018-09-05T12:56:03.275Z,4.70
2018-09-05T12:58:31.399Z,4.87
2018-09-05T13:01:00.090Z,4.23
2018-09-05T13:03:28.724Z,4.00
2018-09-05T13:05:57.605Z,4.63
2018-09-05T13:08:26.080Z,4.63
2018-09-05T13:10:54.401Z,4.20
2018-09-05T13:13:22.869Z,4.90
2018-09-05T13:15:51.372Z,4.17
2018-09-05T13:18:20.021Z,4.50
2018-09-05T13:20:48.472Z,4.43
2018-09-05T13:23:16.938Z,4.60
2018-09-05T13:25:45.391Z,4.67
2018-09-05T13:28:13.837Z,5.00
2018-09-05T13:30:41.959Z,4.70
2018-09-05T13:33:10.141Z,4.23
2018-09-05T13:35:38.726Z,4.40
2018-09-05T13:38:06.918Z,4.87
2018-09-05T13:40:35.363Z,4.80
2018-09-05T13:43:04.111Z,4.10
2018-09-05T13:45:32.468Z,4.70
2018-09-05T13:48:00.591Z,5.30
2018-09-05T13:50:28.696Z,4.57
2018-09-05T13:52:56.872Z,4.90
2018-09-05T13:55:25.363Z,4.27
2018-09-05T13:57:53.959Z,4.40
2018-09-05T14:00:22.981Z,4.53
2018-09-05T14:02:51.135Z,4.63
2018-09-05T14:05:19.766Z,4.93
2018-09-05T14:07:49.857Z,4.90
2018-09-05T14:10:18.884Z,4.83
2018-09-05T14:12:47.664Z,5.60
2018-09-05T14:15:16.379Z,5.00
2018-09-05T14:17:44.985Z,4.40
2018-09-05T14:20:13.473Z,4.93
2018-09-05T14:22:42.029Z,4.70
2018-09-05T14:25:10.160Z,4.73
2018-09-05T14:27:38.641Z,4.50
2018-09-05T14:30:06.952Z,4.57
2018-09-05T14:32:35.600Z,4.73
2018-09-05T14:35:04.548Z,5.10
2018-09-05T14:37:33.005Z,4.70
2018-09-05T14:40:01.532Z,4.80
2018-09-05T14:42:31.119Z,4.73
2018-09-05T14:44:59.492Z,4.90
2018-09-05T14:47:27.952Z,5.13
2018-09-05T14:49:56.137Z,4.87
2018-09-05T14:52:24.580Z,5.20
2018-09-05T14:54:53.597Z,5.50
2018-09-05T14:57:22.272Z,5.20
2018-09-05T14:59:50.773Z,5.27
2018-09-05T15:02:19.503Z,5.00
2018-09-05T15:04:48.212Z,5.50
2018-09-05T15:07:16.647Z,5.70
2018-09-05T15:09:45.093Z,5.10
2018-09-05T15:12:13.282Z,5.17
2018-09-05T15:14:41.609Z,5.50
2018-09-05T15:17:09.938Z,5.40
2018-09-05T15:19:38.635Z,4.90
2018-09-05T15:22:06.855Z,4.73
2018-09-05T15:24:35.605Z,4.67
2018-09-05T15:27:04.064Z,5.67
2018-09-05T15:29:32.516Z,5.43
2018-09-05T15:32:01.003Z,5.10
2018-09-05T15:34:29.704Z,4.70
2018-09-05T15:36:58.152Z,4.90
2018-09-05T15:39:26.689Z,4.80
2018-09-05T15:41:55.327Z,5.00
2018-09-05T15:44:23.772Z,4.87
2018-09-05T15:46:52.308Z,5.03
2018-09-05T15:49:20.981Z,4.90
2018-09-05T15:51:54.206Z,5.13
2018-09-05T15:54:23.908Z,4.97
2018-09-05T15:56:52.803Z,5.80
2018-09-05T15:59:21.423Z,5.10
2018-09-05T16:01:49.794Z,5.83
2018-09-05T16:04:18.436Z,5.50
2018-09-05T16:06:46.943Z,5.13
2018-09-05T16:09:15.481Z,5.50
2018-09-05T16:11:45.589Z,5.50
2018-09-05T16:14:13.717Z,5.17
2018-09-05T16:16:41.931Z,5.00
2018-09-05T16:19:10.276Z,4.60
2018-09-05T16:21:38.413Z,4.80
2018-09-05T16:24:06.935Z,4.73
2018-09-05T16:26:35.309Z,4.80
2018-09-05T16:29:04.016Z,5.10
2018-09-05T16:31:32.182Z,5.00
2018-09-05T16:34:00.737Z,5.40
2018-09-05T16:36:28.852Z,5.50
2018-09-05T16:38:56.980Z,5.70
2018-09-05T16:41:25.445Z,5.70
2018-09-05T16:43:53.908Z,5.77
2018-09-05T16:46:22.353Z,5.73
2018-09-05T16:48:50.814Z,6.30
2018-09-05T16:51:19.460Z,5.37
2018-09-05T16:53:47.572Z,5.67
2018-09-05T16:56:16.875Z,5.10
2018-09-05T16:58:45.963Z,5.67
2018-09-05T17:01:14.416Z,5.60
2018-09-05T17:03:42.865Z,5.30
2018-09-05T17:06:11.319Z,6.43
2018-09-05T17:08:39.463Z,5.37
2018-09-05T17:11:07.585Z,6.07
2018-09-05T17:13:36.251Z,6.03
2018-09-05T17:16:04.619Z,5.73
2018-09-05T17:18:33.435Z,5.97
2018-09-05T17:21:02.376Z,5.90
2018-09-05T17:23:30.829Z,6.23
2018-09-05T17:25:59.520Z,5.70
2018-09-05T17:28:30.496Z,6.67
2018-09-05T17:30:59.101Z,6.40
2018-09-05T17:33:27.596Z,7.10
2018-09-05T17:35:57.288Z,5.83
2018-09-05T17:38:26.768Z,6.13
2018-09-05T17:40:55.220Z,6.30
2018-09-05T17:43:23.367Z,5.67
2018-09-05T17:45:52.059Z,6.63
2018-09-05T17:48:21.481Z,5.93
2018-09-05T17:50:52.654Z,6.00
2018-09-05T17:53:21.384Z,5.77
2018-09-05T17:55:49.840Z,6.40
2018-09-05T17:58:18.755Z,5.90
2018-09-05T18:00:46.929Z,6.50
2018-09-05T18:03:15.038Z,5.93
2018-09-05T18:05:43.481Z,6.53
2018-09-05T18:08:12.223Z,5.93
2018-09-05T18:10:40.560Z,6.17
2018-09-05T18:13:09.636Z,5.93
2018-09-05T18:15:38.120Z,7.10
2018-09-05T18:18:07.740Z,7.10
2018-09-05T18:20:37.115Z,6.20
2018-09-05T18:23:05.360Z,6.23
2018-09-05T18:25:35.220Z,6.90
2018-09-05T18:28:03.664Z,6.03
2018-09-05T18:30:32.171Z,6.80
2018-09-05T18:33:00.624Z,6.40
2018-09-05T18:35:29.274Z,6.13
2018-09-05T18:37:57.754Z,7.27
2018-09-05T18:40:26.405Z,6.53
2018-09-05T18:42:54.558Z,6.33
2018-09-05T18:45:23.212Z,6.63
2018-09-05T18:47:51.326Z,6.70
2018-09-05T18:50:19.455Z,7.27
2018-09-05T18:52:47.917Z,6.17
2018-09-05T18:55:16.692Z,6.80
2018-09-05T18:57:45.183Z,6.17
2018-09-05T19:00:13.588Z,6.77
2018-09-05T19:02:42.079Z,6.70
2018-09-05T19:05:10.559Z,7.57
2018-09-05T19:07:38.675Z,6.53
2018-09-05T19:10:07.360Z,6.03
2018-09-05T19:12:35.806Z,6.50
2018-09-05T19:15:04.377Z,6.80
2018-09-05T19:17:32.844Z,6.60
2018-09-05T19:20:01.326Z,6.33
2018-09-05T19:22:29.815Z,7.03
2018-09-05T19:24:58.060Z,6.87
2018-09-05T19:27:26.217Z,6.90
2018-09-05T19:32:44.818Z,8.73
2018-09-05T19:35:13.092Z,7.30
2018-09-05T19:37:41.624Z,6.63
2018-09-05T19:40:10.185Z,5.53
2018-09-05T19:42:38.521Z,6.43
2018-09-05T19:45:07.217Z,6.73
2018-09-05T19:47:35.426Z,7.07
2018-09-05T19:50:04.533Z,6.80
2018-09-05T19:52:33.200Z,6.73
2018-09-05T19:55:01.312Z,6.60
2018-09-05T19:57:30.029Z,7.37
2018-09-05T19:59:58.404Z,6.57
2018-09-05T20:02:26.876Z,7.07
2018-09-05T20:04:55.333Z,7.07
2018-09-05T20:07:25.251Z,7.63
2018-09-05T20:09:53.580Z,7.10
2018-09-05T20:12:21.953Z,6.63
2018-09-05T20:14:50.328Z,6.70
2018-09-05T20:17:19.260Z,6.97
2018-09-05T20:19:47.716Z,6.87
2018-09-05T20:22:16.060Z,6.30
2018-09-05T20:24:44.508Z,6.97
2018-09-05T20:27:12.649Z,6.40
2018-09-05T20:29:40.972Z,6.60
2018-09-05T20:32:09.457Z,6.80
2018-09-05T20:34:37.585Z,6.73
2018-09-05T20:37:05.972Z,7.37
2018-09-05T20:39:34.100Z,7.57
2018-09-05T20:42:02.224Z,5.97
2018-09-05T20:44:30.686Z,6.97
2018-09-05T20:46:59.433Z,7.30
2018-09-05T20:49:27.781Z,6.30
2018-09-05T20:51:55.921Z,6.73
2018-09-05T20:54:24.408Z,6.97
2018-09-05T20:56:52.868Z,6.93
2018-09-05T20:59:21.000Z,6.70
2018-09-05T21:01:49.145Z,7.03
2018-09-05T21:04:17.596Z,7.30
2018-09-05T21:06:48.753Z,7.00
2018-09-05T21:09:18.165Z,7.30
2018-09-05T21:11:46.297Z,7.10
2018-09-05T21:14:14.766Z,6.87
2018-09-05T21:16:43.237Z,7.03
2018-09-05T21:19:11.380Z,7.20
2018-09-05T21:21:40.054Z,7.00
2018-09-05T21:24:08.401Z,7.03
2018-09-05T21:26:36.925Z,7.67
2018-09-05T21:29:05.556Z,7.23
2018-09-05T21:31:34.033Z,6.50
2018-09-05T21:34:02.553Z,7.43
2018-09-05T21:36:31.142Z,7.50
2018-09-05T21:38:59.345Z,7.17
2018-09-05T21:41:27.619Z,6.70
2018-09-05T21:43:56.284Z,7.50
2018-09-05T21:46:24.957Z,6.47
2018-09-05T21:48:54.004Z,7.00
2018-09-05T21:51:22.135Z,7.13
2018-09-05T21:53:50.292Z,7.17
2018-09-05T21:56:18.432Z,6.77
2018-09-05T21:58:46.584Z,7.57
2018-09-05T22:01:16.193Z,7.30
2018-09-05T22:03:44.362Z,7.30
2018-09-05T22:06:13.197Z,6.77
2018-09-05T22:08:41.549Z,7.80
2018-09-05T22:11:15.128Z,6.80
2018-09-05T22:13:43.539Z,7.57
2018-09-05T22:16:11.884Z,7.73
2018-09-05T22:18:40.225Z,6.90
2018-09-05T22:21:08.700Z,7.13
2018-09-05T22:23:37.227Z,7.73
2018-09-05T22:26:07.157Z,8.83
2018-09-05T22:28:35.932Z,7.77
2018-09-05T22:31:04.388Z,7.00
2018-09-05T22:33:32.520Z,6.90
2018-09-05T22:36:00.644Z,6.97
2018-09-05T22:38:28.792Z,7.40
2018-09-05T22:40:57.252Z,6.80
2018-09-05T22:43:37.479Z,6.63
2018-09-05T22:46:17.016Z,7.97
2018-09-05T22:48:56.581Z,7.00
2018-09-05T22:52:10.885Z,7.07
2018-09-05T22:54:56.009Z,7.83
2018-09-05T22:58:40.380Z,7.40
2018-09-05T23:01:19.269Z,7.40
2018-09-05T23:04:05.169Z,7.03
2018-09-05T23:06:43.525Z,7.40
2018-09-05T23:09:12.017Z,7.40
2018-09-05T23:11:49.290Z,7.13
2018-09-05T23:15:28.955Z,7.33
2018-09-05T23:18:11.261Z,7.70
2018-09-05T23:21:05.010Z,7.13
2018-09-05T23:23:44.344Z,7.03
2018-09-05T23:26:12.828Z,7.20
2018-09-05T23:28:40.993Z,7.77
2018-09-05T23:31:09.466Z,8.93
2018-09-05T23:33:37.969Z,7.00
2018-09-05T23:36:06.185Z,7.50
2018-09-05T23:38:34.349Z,8.67
2018-09-05T23:41:03.097Z,7.03
2018-09-05T23:43:31.657Z,7.63
2018-09-05T23:46:00.733Z,7.90
2018-09-05T23:48:29.452Z,8.23
2018-09-05T23:50:58.001Z,7.63
2018-09-05T23:53:26.514Z,7.70
2018-09-05T23:55:54.813Z,8.40
2018-09-05T23:58:23.892Z,8.33
